createdAt,value
2019-03-01T00:03:15.907Z,99.90
2019-03-01T00:08:10.429Z,99.90
2019-03-01T00:13:58.139Z,99.90
2019-03-01T00:19:27.185Z,99.90
2019-03-01T00:24:35.787Z,96.30
2019-03-01T00:30:10.240Z,95.50
2019-03-01T00:35:49.048Z,96.90
2019-03-01T00:41:00.427Z,99.90
2019-03-01T00:45:46.513Z,99.90
2019-03-01T00:50:32.450Z,99.90
2019-03-01T00:55:18.344Z,99.90
2019-03-01T01:00:04.909Z,99.90
2019-03-01T01:04:50.960Z,99.90
2019-03-01T01:09:37.127Z,99.90
2019-03-01T01:14:23.168Z,99.90
2019-03-01T01:19:09.058Z,99.90
2019-03-01T01:23:54.869Z,99.90
2019-03-01T01:28:41.007Z,98.60
2019-03-01T01:33:26.934Z,87.00
2019-03-01T01:38:13.222Z,81.80
2019-03-01T01:42:59.051Z,88.00
2019-03-01T01:47:45.069Z,76.90
2019-03-01T01:52:30.836Z,75.40
2019-03-01T01:57:16.960Z,81.90
2019-03-01T02:02:02.725Z,91.90
2019-03-01T02:06:48.714Z,90.50
2019-03-01T02:11:34.571Z,90.30
2019-03-01T02:16:20.640Z,91.20
2019-03-01T02:21:06.346Z,89.70
2019-03-01T02:25:52.491Z,92.40
2019-03-01T02:30:38.262Z,98.80
2019-03-01T02:35:27.852Z,99.70
2019-03-01T02:40:14.245Z,98.80
2019-03-01T02:44:59.916Z,99.90
2019-03-01T02:49:45.663Z,99.90
2019-03-01T02:54:31.383Z,99.90
2019-03-01T02:59:17.183Z,99.90
2019-03-01T03:04:02.877Z,99.90
2019-03-01T03:08:48.912Z,99.90
2019-03-01T03:13:34.578Z,99.90
2019-03-01T03:18:20.668Z,99.90
2019-03-01T03:23:06.401Z,99.90
2019-03-01T03:27:52.451Z,99.90
2019-03-01T03:32:38.403Z,99.90
2019-03-01T03:37:24.144Z,99.90
2019-03-01T03:42:11.541Z,99.90
2019-03-01T03:46:57.472Z,99.90
2019-03-01T03:51:43.392Z,99.90
2019-03-01T03:56:29.311Z,99.90
2019-03-01T04:01:15.109Z,99.90
2019-03-01T04:06:00.830Z,99.90
2019-03-01T04:10:46.605Z,99.90
2019-03-01T04:15:32.305Z,99.90
2019-03-01T04:20:18.459Z,99.90
2019-03-01T04:25:04.496Z,99.90
2019-03-01T04:29:50.397Z,99.90
2019-03-01T04:34:36.083Z,99.90
2019-03-01T04:39:21.824Z,99.90
2019-03-01T04:44:07.548Z,99.90
2019-03-01T04:48:53.376Z,99.90
2019-03-01T04:53:39.190Z,99.90
2019-03-01T04:58:24.950Z,99.90
2019-03-01T05:03:10.760Z,99.90
2019-03-01T05:07:56.681Z,99.90
2019-03-01T05:12:42.467Z,99.90
2019-03-01T05:17:28.256Z,99.90
2019-03-01T05:22:13.905Z,99.90
2019-03-01T05:26:59.736Z,99.90
2019-03-01T05:31:45.575Z,99.90
2019-03-01T05:36:31.290Z,99.90
2019-03-01T05:41:17.317Z,99.90
2019-03-01T05:46:03.449Z,99.90
2019-03-01T05:50:49.484Z,99.90
2019-03-01T05:55:35.826Z,99.90
2019-03-01T06:00:21.745Z,99.90
2019-03-01T06:05:27.375Z,99.90
2019-03-01T06:10:18.687Z,99.90
2019-03-01T06:15:54.808Z,99.90
2019-03-01T06:21:10.103Z,99.90
2019-03-01T06:26:34.531Z,99.90
2019-03-01T06:32:22.137Z,99.90
2019-03-01T06:37:32.644Z,99.90
2019-03-01T06:42:31.205Z,99.90
2019-03-01T06:47:40.551Z,99.90
2019-03-01T06:52:26.315Z,99.90
2019-03-01T06:57:12.292Z,99.90
2019-03-01T07:01:58.113Z,99.90
2019-03-01T07:06:44.111Z,99.90
2019-03-01T07:11:30.212Z,99.90
2019-03-01T07:16:16.120Z,99.90
2019-03-01T07:21:02.192Z,99.90
2019-03-01T07:25:48.087Z,99.90
2019-03-01T07:30:34.291Z,99.90
2019-03-01T07:35:20.078Z,99.90
2019-03-01T07:40:06.326Z,99.90
2019-03-01T07:44:52.424Z,99.90
2019-03-01T07:49:38.269Z,99.90
2019-03-01T07:54:24.649Z,99.90
2019-03-01T07:59:10.636Z,99.90
2019-03-01T08:03:56.872Z,99.90
2019-03-01T08:08:42.850Z,99.90
2019-03-01T08:13:28.538Z,99.90
2019-03-01T08:18:14.607Z,99.90
2019-03-01T08:23:00.826Z,99.90
2019-03-01T08:27:50.186Z,99.90
2019-03-01T08:32:35.299Z,99.90
2019-03-01T08:37:21.607Z,99.90
2019-03-01T08:42:07.591Z,99.90
2019-03-01T08:46:53.579Z,99.90
2019-03-01T08:51:39.551Z,99.90
2019-03-01T08:56:26.482Z,99.90
2019-03-01T09:01:13.453Z,99.90
2019-03-01T09:05:59.550Z,99.90
2019-03-01T09:10:45.398Z,99.90
2019-03-01T09:15:31.341Z,99.90
2019-03-01T09:20:17.474Z,99.90
2019-03-01T09:25:07.576Z,99.90
2019-03-01T09:29:50.798Z,99.90
2019-03-01T09:34:36.769Z,99.90
2019-03-01T09:39:22.503Z,99.90
2019-03-01T09:44:08.518Z,99.90
2019-03-01T09:48:54.451Z,99.90
2019-03-01T09:53:40.484Z,99.90
2019-03-01T09:58:26.560Z,99.90
2019-03-01T10:03:12.698Z,99.90
2019-03-01T10:07:58.444Z,99.90
2019-03-01T10:12:44.351Z,99.90
2019-03-01T10:17:30.769Z,99.90
2019-03-01T10:22:17.167Z,99.90
2019-03-01T10:27:03.471Z,99.90
2019-03-01T10:31:49.982Z,99.90
2019-03-01T10:36:36.073Z,99.90
2019-03-01T10:41:22.019Z,99.90
2019-03-01T10:46:08.031Z,99.90
2019-03-01T10:50:54.114Z,99.90
2019-03-01T10:55:40.787Z,99.90
2019-03-01T11:00:27.540Z,99.90
2019-03-01T11:05:13.584Z,99.90
2019-03-01T11:09:59.711Z,99.90
2019-03-01T11:14:45.744Z,99.90
2019-03-01T11:19:31.821Z,99.90
2019-03-01T11:24:17.775Z,99.90
2019-03-01T11:29:03.923Z,99.90
2019-03-01T11:33:50.685Z,99.90
2019-03-01T11:38:39.199Z,99.90
2019-03-01T11:43:25.426Z,99.90
2019-03-01T11:48:11.262Z,99.90
2019-03-01T11:52:57.236Z,99.90
2019-03-01T11:57:43.241Z,99.90
2019-03-01T12:02:29.002Z,99.90
2019-03-01T12:07:15.048Z,99.90
2019-03-01T12:12:01.012Z,99.90
2019-03-01T12:16:47.017Z,99.90
2019-03-01T12:21:32.810Z,99.90
2019-03-01T12:26:18.699Z,99.90
2019-03-01T12:31:04.706Z,99.90
2019-03-01T12:35:50.731Z,99.90
2019-03-01T12:40:37.016Z,99.90
2019-03-01T12:45:22.994Z,99.90
2019-03-01T12:50:10.213Z,99.90
2019-03-01T12:54:56.056Z,99.90
2019-03-01T12:59:41.915Z,99.90
2019-03-01T13:04:27.752Z,99.90
2019-03-01T13:09:16.539Z,99.90
2019-03-01T13:14:02.477Z,99.90
2019-03-01T13:18:51.415Z,99.90
2019-03-01T13:23:37.529Z,99.90
2019-03-01T13:28:24.451Z,99.90
2019-03-01T13:33:10.460Z,99.90
2019-03-01T13:37:56.805Z,99.90
2019-03-01T13:42:43.181Z,99.90
2019-03-01T13:47:29.088Z,99.90
2019-03-01T13:52:14.981Z,99.90
2019-03-01T13:57:00.853Z,99.90
2019-03-01T14:01:47.711Z,99.90
2019-03-01T14:06:33.758Z,99.90
2019-03-01T14:11:23.227Z,99.90
2019-03-01T14:16:07.150Z,99.90
2019-03-01T14:20:54.530Z,99.90
2019-03-01T14:25:41.631Z,99.90
2019-03-01T14:30:30.315Z,99.90
2019-03-01T14:35:15.810Z,99.90
2019-03-01T14:40:01.810Z,99.90
2019-03-01T14:44:47.694Z,99.90
2019-03-01T14:49:33.507Z,99.90
2019-03-01T14:54:21.259Z,99.90
2019-03-01T14:59:38.078Z,99.90
2019-03-01T15:04:21.832Z,99.90
2019-03-01T15:09:09.985Z,99.90
2019-03-01T15:13:57.018Z,99.90
2019-03-01T15:18:43.455Z,99.90
2019-03-01T15:23:29.284Z,99.90
2019-03-01T15:28:16.655Z,99.90
2019-03-01T15:33:03.213Z,99.90
2019-03-01T15:37:49.452Z,99.90
2019-03-01T15:42:35.280Z,99.90
2019-03-01T15:47:23.890Z,99.90
2019-03-01T15:52:10.631Z,99.90
2019-03-01T15:56:56.005Z,99.90
2019-03-01T16:01:43.605Z,99.90
2019-03-01T16:06:29.527Z,99.90
2019-03-01T16:11:15.423Z,99.90
2019-03-01T16:16:01.279Z,99.90
2019-03-01T16:20:47.518Z,99.90
2019-03-01T16:25:33.431Z,99.90
2019-03-01T16:30:19.520Z,99.90
2019-03-01T16:35:05.725Z,99.90
2019-03-01T16:39:51.590Z,99.90
2019-03-01T16:44:37.392Z,99.90
2019-03-01T16:49:23.515Z,99.90
2019-03-01T16:54:15.384Z,99.90
2019-03-01T16:59:00.295Z,99.90
2019-03-01T17:03:45.573Z,99.90
2019-03-01T17:08:31.418Z,99.90
2019-03-01T17:13:17.274Z,99.90
2019-03-01T17:18:03.335Z,99.90
2019-03-01T17:22:49.522Z,99.90
2019-03-01T17:27:36.678Z,99.90
2019-03-01T17:32:22.634Z,99.90
2019-03-01T17:37:08.443Z,99.90
2019-03-01T17:41:54.228Z,99.90
2019-03-01T17:46:40.259Z,99.90
2019-03-01T17:51:26.413Z,99.90
2019-03-01T17:56:12.524Z,99.90
2019-03-01T18:00:58.786Z,99.90
2019-03-01T18:05:46.087Z,99.90
2019-03-01T18:10:32.972Z,99.90
2019-03-01T18:15:19.153Z,99.90
2019-03-01T18:20:05.523Z,99.90
2019-03-01T18:24:51.425Z,99.90
2019-03-01T18:29:39.058Z,99.90
2019-03-01T18:34:25.083Z,99.90
2019-03-01T18:39:13.984Z,99.90
2019-03-01T18:43:59.750Z,99.90
2019-03-01T18:48:45.635Z,99.90
2019-03-01T18:53:31.606Z,99.90
2019-03-01T18:58:17.475Z,99.90
2019-03-01T19:03:05.650Z,99.90
2019-03-01T19:07:51.555Z,99.90
2019-03-01T19:12:37.461Z,99.90
2019-03-01T19:17:23.728Z,99.90
2019-03-01T19:22:09.729Z,99.90
2019-03-01T19:26:55.707Z,99.90
2019-03-01T19:31:41.580Z,99.90
2019-03-01T19:36:27.555Z,99.90
2019-03-01T19:41:13.654Z,99.90
2019-03-01T19:45:59.639Z,99.90
2019-03-01T19:50:45.906Z,99.90
2019-03-01T19:55:31.989Z,99.90
2019-03-01T20:00:20.106Z,99.90
2019-03-01T20:05:08.457Z,99.90
2019-03-01T20:09:54.596Z,99.90
2019-03-01T20:14:40.753Z,99.90
2019-03-01T20:19:26.779Z,99.90
2019-03-01T20:24:12.841Z,99.90
2019-03-01T20:28:59.386Z,99.90
2019-03-01T20:33:45.727Z,99.90
2019-03-01T20:38:31.809Z,99.90
2019-03-01T20:43:17.964Z,99.90
2019-03-01T20:48:04.300Z,99.90
2019-03-01T20:52:50.452Z,99.90
2019-03-01T20:57:36.489Z,99.90
2019-03-01T21:02:23.147Z,99.90
2019-03-01T21:07:12.403Z,99.90
2019-03-01T21:11:57.705Z,99.90
2019-03-01T21:16:45.704Z,99.90
2019-03-01T21:21:31.710Z,99.90
2019-03-01T21:26:17.966Z,99.90
2019-03-01T21:31:04.198Z,99.90
2019-03-01T21:35:51.243Z,99.90
2019-03-01T21:40:37.979Z,99.90
2019-03-01T21:45:24.142Z,99.90
2019-03-01T21:50:10.457Z,99.90
2019-03-01T21:54:56.733Z,99.90
2019-03-01T21:59:42.584Z,99.90
2019-03-01T22:04:28.848Z,99.90
2019-03-01T22:09:15.400Z,99.90
2019-03-01T22:14:01.356Z,99.90
2019-03-01T22:18:47.649Z,99.90
2019-03-01T22:23:33.516Z,99.90
2019-03-01T22:28:21.307Z,99.90
2019-03-01T22:33:07.324Z,99.90
2019-03-01T22:37:53.520Z,99.90
2019-03-01T22:42:39.260Z,99.90
2019-03-01T22:47:25.199Z,99.90
2019-03-01T22:52:11.130Z,99.90
2019-03-01T22:56:56.974Z,99.90
2019-03-01T23:01:48.625Z,99.90
2019-03-01T23:06:34.413Z,99.90
2019-03-01T23:11:20.614Z,99.90
2019-03-01T23:16:06.653Z,99.90
2019-03-01T23:20:52.562Z,99.90
2019-03-01T23:25:38.259Z,99.90
2019-03-01T23:30:25.824Z,99.90
2019-03-01T23:35:14.609Z,99.90
2019-03-01T23:40:01.006Z,99.90
2019-03-01T23:44:46.590Z,99.90
2019-03-01T23:49:32.401Z,99.90
2019-03-01T23:54:18.061Z,99.90
2019-03-01T23:59:03.799Z,99.90
